createdAt,value
2022-08-10T00:02:39.613Z,19.60
2022-08-10T00:05:29.048Z,19.60
2022-08-10T00:08:32.532Z,19.40
2022-08-10T00:11:21.485Z,19.40
2022-08-10T00:14:10.025Z,19.40
2022-08-10T00:17:00.013Z,19.50
2022-08-10T00:20:04.226Z,19.50
2022-08-10T00:22:57.929Z,19.40
2022-08-10T00:25:46.715Z,19.50
2022-08-10T00:28:35.355Z,19.40
2022-08-10T00:31:23.838Z,19.40
2022-08-10T00:34:14.007Z,19.40
2022-08-10T00:37:03.147Z,19.30
2022-08-10T00:39:51.707Z,19.30
2022-08-10T00:42:40.289Z,19.30
2022-08-10T00:45:28.908Z,19.20
2022-08-10T00:48:17.447Z,19.20
2022-08-10T00:51:07.643Z,19.10
2022-08-10T00:53:56.204Z,19.00
2022-08-10T00:57:15.727Z,19.00
2022-08-10T00:59:59.276Z,18.90
2022-08-10T01:02:48.738Z,18.80
2022-08-10T01:05:51.265Z,18.80
2022-08-10T01:08:52.041Z,18.80
2022-08-10T01:12:39.169Z,18.70
2022-08-10T01:15:03.863Z,18.70
2022-08-10T01:17:57.559Z,18.80
2022-08-10T01:21:05.934Z,18.60
2022-08-10T01:24:08.758Z,18.60
2022-08-10T01:27:14.013Z,18.50
2022-08-10T01:30:07.748Z,18.50
2022-08-10T01:33:10.782Z,18.50
2022-08-10T01:36:03.020Z,18.50
2022-08-10T01:38:53.963Z,18.40
2022-08-10T01:41:46.610Z,18.40
2022-08-10T01:44:38.524Z,18.40
2022-08-10T01:47:49.805Z,18.30
2022-08-10T01:50:59.783Z,18.30
2022-08-10T01:53:53.123Z,18.10
2022-08-10T01:56:44.919Z,18.20
2022-08-10T01:59:37.764Z,18.10
2022-08-10T02:02:30.643Z,18.20
2022-08-10T02:05:19.876Z,18.10
2022-08-10T02:08:12.653Z,18.10
2022-08-10T02:11:03.391Z,18.10
2022-08-10T02:13:53.445Z,18.00
2022-08-10T02:16:45.665Z,18.10
2022-08-10T02:19:37.534Z,18.00
2022-08-10T02:22:37.738Z,17.90
2022-08-10T02:25:40.830Z,18.00
2022-08-10T02:28:35.364Z,17.90
2022-08-10T02:31:29.728Z,17.90
2022-08-10T02:34:21.051Z,17.80
2022-08-10T02:37:13.493Z,17.80
2022-08-10T02:40:02.131Z,17.70
2022-08-10T02:45:24.117Z,17.60
2022-08-10T02:46:14.319Z,17.60
2022-08-10T02:49:14.171Z,17.70
2022-08-10T02:52:08.959Z,17.70
2022-08-10T02:55:06.114Z,17.60
2022-08-10T02:58:12.680Z,17.60
2022-08-10T03:01:14.370Z,17.50
2022-08-10T03:04:06.105Z,17.60
2022-08-10T03:06:59.232Z,17.60
2022-08-10T03:09:48.640Z,17.50
2022-08-10T03:12:40.688Z,17.50
2022-08-10T03:15:30.690Z,17.50
2022-08-10T03:18:20.823Z,17.50
2022-08-10T03:21:12.025Z,17.40
2022-08-10T03:24:02.693Z,17.40
2022-08-10T03:27:12.356Z,17.30
2022-08-10T03:30:31.891Z,17.30
2022-08-10T03:33:13.695Z,17.30
2022-08-10T03:36:43.572Z,17.30
2022-08-10T03:39:11.636Z,17.40
2022-08-10T03:42:06.186Z,17.40
2022-08-10T03:44:56.004Z,17.40
2022-08-10T03:47:47.150Z,17.60
2022-08-10T03:50:51.388Z,17.50
2022-08-10T03:54:06.154Z,17.50
2022-08-10T03:56:51.631Z,17.40
2022-08-10T03:59:40.594Z,17.30
2022-08-10T04:02:44.496Z,17.40
2022-08-10T04:05:39.109Z,17.20
2022-08-10T04:08:27.907Z,17.20
2022-08-10T04:11:16.471Z,17.30
2022-08-10T04:14:05.112Z,17.40
2022-08-10T04:16:53.672Z,17.50
2022-08-10T04:19:46.934Z,17.40
2022-08-10T04:22:39.067Z,17.40
2022-08-10T04:25:28.368Z,17.50
2022-08-10T04:28:17.964Z,17.70
2022-08-10T04:31:09.668Z,17.60
2022-08-10T04:34:06.058Z,17.60
2022-08-10T04:37:02.544Z,17.50
2022-08-10T04:39:55.991Z,17.60
2022-08-10T04:42:45.090Z,17.70
2022-08-10T04:45:48.716Z,17.90
2022-08-10T04:48:59.485Z,17.80
2022-08-10T04:51:48.591Z,17.80
2022-08-10T04:54:37.564Z,17.80
2022-08-10T04:57:27.910Z,17.70
2022-08-10T05:00:19.049Z,17.90
2022-08-10T05:03:08.031Z,18.00
2022-08-10T05:05:57.076Z,18.30
2022-08-10T05:08:50.049Z,18.20
2022-08-10T05:11:38.560Z,18.30
2022-08-10T05:14:28.555Z,18.30
2022-08-10T05:17:17.103Z,18.30
2022-08-10T05:20:08.146Z,18.60
2022-08-10T05:22:56.802Z,18.70
2022-08-10T05:25:45.546Z,18.60
2022-08-10T05:28:34.134Z,18.60
2022-08-10T05:31:25.324Z,18.70
2022-08-10T05:34:20.767Z,18.90
2022-08-10T05:38:09.660Z,18.90
2022-08-10T05:40:19.583Z,19.00
2022-08-10T05:43:08.741Z,19.20
2022-08-10T05:46:16.809Z,19.30
2022-08-10T05:49:07.173Z,19.40
2022-08-10T05:51:55.734Z,19.20
2022-08-10T05:54:44.921Z,19.60
2022-08-10T05:57:36.335Z,19.60
2022-08-10T06:00:36.317Z,19.60
2022-08-10T06:03:38.713Z,19.60
2022-08-10T06:06:31.186Z,20.00
2022-08-10T06:09:21.602Z,20.60
2022-08-10T06:12:35.261Z,21.40
2022-08-10T06:15:21.374Z,21.30
2022-08-10T06:18:12.986Z,20.70
2022-08-10T06:21:02.673Z,20.20
2022-08-10T06:23:54.089Z,20.10
2022-08-10T06:26:42.865Z,19.80
2022-08-10T06:29:34.742Z,20.00
2022-08-10T06:32:28.553Z,20.20
2022-08-10T06:35:19.072Z,20.20
2022-08-10T06:38:09.790Z,20.00
2022-08-10T06:41:03.711Z,20.20
2022-08-10T06:43:58.297Z,21.50
2022-08-10T06:46:51.970Z,22.10
2022-08-10T06:49:40.570Z,22.20
2022-08-10T06:52:31.824Z,22.10
2022-08-10T06:55:23.371Z,21.70
2022-08-10T06:58:36.658Z,21.60
2022-08-10T07:01:29.495Z,21.20
2022-08-10T07:04:32.938Z,21.40
2022-08-10T07:07:30.596Z,21.30
2022-08-10T07:10:26.274Z,21.30
2022-08-10T07:14:17.272Z,21.70
2022-08-10T07:16:43.777Z,21.80
2022-08-10T07:19:33.947Z,22.10
2022-08-10T07:23:01.139Z,22.10
2022-08-10T07:25:52.991Z,22.30
2022-08-10T07:28:47.849Z,22.30
2022-08-10T07:31:55.891Z,22.10
2022-08-10T07:34:48.197Z,22.10
2022-08-10T07:37:38.486Z,22.40
2022-08-10T07:40:27.883Z,22.60
2022-08-10T07:43:18.222Z,22.80
2022-08-10T07:46:14.015Z,22.40
2022-08-10T07:49:15.341Z,22.10
2022-08-10T07:52:10.537Z,21.80
2022-08-10T07:55:00.389Z,22.00
2022-08-10T07:57:52.268Z,22.80
2022-08-10T08:00:42.061Z,22.70
2022-08-10T08:03:33.719Z,22.70
2022-08-10T08:06:22.698Z,22.90
2022-08-10T08:09:11.971Z,22.90
2022-08-10T08:12:01.487Z,22.50
2022-08-10T08:14:52.015Z,22.40
2022-08-10T08:17:41.853Z,22.50
2022-08-10T08:20:32.300Z,22.70
2022-08-10T08:24:06.551Z,23.70
2022-08-10T08:26:31.944Z,24.30
2022-08-10T08:29:24.993Z,25.30
2022-08-10T08:32:16.374Z,24.50
2022-08-10T08:35:08.352Z,24.80
2022-08-10T08:38:33.504Z,25.40
2022-08-10T08:41:25.325Z,25.70
2022-08-10T08:44:22.775Z,24.90
2022-08-10T08:48:03.571Z,25.40
2022-08-10T08:50:59.504Z,26.50
2022-08-10T08:54:03.965Z,26.00
2022-08-10T08:57:04.659Z,25.20
2022-08-10T09:00:05.480Z,25.30
2022-08-10T09:03:28.625Z,24.90
2022-08-10T09:06:43.912Z,24.20
2022-08-10T09:10:04.644Z,25.60
2022-08-10T09:13:00.545Z,26.30
2022-08-10T09:16:00.469Z,26.60
2022-08-10T09:18:53.550Z,24.80
2022-08-10T09:21:58.617Z,24.40
2022-08-10T09:25:01.932Z,24.10
2022-08-10T09:27:57.892Z,24.10
2022-08-10T09:31:21.066Z,24.00
2022-08-10T09:36:24.405Z,25.90
2022-08-10T09:37:39.965Z,27.00
2022-08-10T09:41:00.369Z,27.30
2022-08-10T09:43:58.019Z,25.40
2022-08-10T09:46:58.856Z,27.20
2022-08-10T09:50:04.442Z,27.10
2022-08-10T09:53:08.919Z,27.00
2022-08-10T09:56:17.881Z,28.40
2022-08-10T09:59:27.162Z,30.20
2022-08-10T10:02:33.708Z,30.00
2022-08-10T10:05:52.378Z,27.70
2022-08-10T10:08:58.317Z,26.50
2022-08-10T10:12:16.472Z,26.00
2022-08-10T10:15:25.261Z,26.30
2022-08-10T10:18:28.411Z,25.50
2022-08-10T10:21:55.517Z,25.30
2022-08-10T10:24:44.075Z,24.80
2022-08-10T10:27:41.317Z,26.70
2022-08-10T10:30:37.602Z,29.30
2022-08-10T10:33:34.445Z,31.70
2022-08-10T10:36:24.941Z,32.30
2022-08-10T10:39:16.945Z,34.10
2022-08-10T10:42:42.183Z,31.60
2022-08-10T10:45:39.006Z,28.30
2022-08-10T10:48:39.814Z,28.80
2022-08-10T10:51:34.308Z,31.50
2022-08-10T10:54:29.392Z,32.70
2022-08-10T10:57:59.007Z,34.50
2022-08-10T11:00:44.925Z,35.60
2022-08-10T11:03:49.082Z,35.40
2022-08-10T11:06:50.639Z,35.50
2022-08-10T11:10:09.306Z,35.10
2022-08-10T11:14:26.908Z,34.20
2022-08-10T11:16:18.879Z,31.80
2022-08-10T11:19:16.046Z,29.70
2022-08-10T11:22:16.425Z,28.20
2022-08-10T11:25:11.384Z,27.80
2022-08-10T11:28:13.872Z,27.60
2022-08-10T11:31:08.116Z,27.50
2022-08-10T11:34:48.216Z,27.10
2022-08-10T11:37:19.842Z,26.90
2022-08-10T11:40:16.910Z,29.20
2022-08-10T11:43:11.824Z,28.40
2022-08-10T11:46:10.985Z,29.40
2022-08-10T11:49:07.360Z,32.50
2022-08-10T11:51:59.179Z,35.20
2022-08-10T11:54:53.638Z,36.50
2022-08-10T11:57:53.070Z,38.50
2022-08-10T12:00:43.033Z,38.90
2022-08-10T12:03:34.975Z,40.20
2022-08-10T12:06:54.133Z,40.10
2022-08-10T12:10:09.415Z,39.90
2022-08-10T12:12:51.909Z,40.70
2022-08-10T12:15:47.449Z,40.00
2022-08-10T12:18:46.289Z,41.00
2022-08-10T12:21:42.715Z,40.80
2022-08-10T12:24:39.093Z,37.80
2022-08-10T12:27:33.093Z,39.50
2022-08-10T12:30:27.750Z,41.40
2022-08-10T12:33:24.298Z,37.70
2022-08-10T12:36:19.069Z,34.20
2022-08-10T12:39:16.967Z,32.20
2022-08-10T12:42:10.442Z,31.30
2022-08-10T12:45:04.578Z,30.10
2022-08-10T12:48:01.383Z,29.20
2022-08-10T12:50:56.898Z,28.60
2022-08-10T12:53:54.176Z,28.30
2022-08-10T12:56:48.130Z,28.40
2022-08-10T12:59:43.260Z,27.80
2022-08-10T13:02:34.614Z,27.40
2022-08-10T13:05:27.613Z,27.50
2022-08-10T13:08:34.391Z,27.00
2022-08-10T13:12:44.239Z,26.90
2022-08-10T13:14:47.665Z,26.80
2022-08-10T13:17:42.703Z,26.60
2022-08-10T13:20:35.797Z,26.80
2022-08-10T13:23:28.199Z,26.80
2022-08-10T13:26:23.605Z,26.70
2022-08-10T13:29:17.652Z,26.90
2022-08-10T13:32:15.592Z,26.90
2022-08-10T13:35:09.181Z,26.50
2022-08-10T13:38:01.987Z,26.60
2022-08-10T13:40:51.558Z,26.60
2022-08-10T13:43:51.773Z,26.70
2022-08-10T13:46:42.437Z,26.40
2022-08-10T13:49:43.445Z,26.80
2022-08-10T13:52:33.032Z,26.50
2022-08-10T13:55:25.049Z,25.70
2022-08-10T13:58:15.761Z,25.50
2022-08-10T14:01:11.391Z,25.10
2022-08-10T14:04:02.310Z,25.30
2022-08-10T14:06:56.480Z,25.30
2022-08-10T14:09:47.796Z,25.30
2022-08-10T14:12:38.771Z,25.50
2022-08-10T14:15:31.119Z,25.70
2022-08-10T14:18:21.177Z,25.60
2022-08-10T14:21:10.357Z,25.70
2022-08-10T14:24:00.265Z,25.60
2022-08-10T14:26:49.947Z,25.70
2022-08-10T14:29:43.684Z,25.60
2022-08-10T14:32:33.415Z,25.10
2022-08-10T14:36:20.314Z,25.20
2022-08-10T14:38:36.484Z,24.90
2022-08-10T14:42:01.085Z,24.90
2022-08-10T14:44:47.439Z,24.80
2022-08-10T14:47:53.207Z,25.00
2022-08-10T14:50:55.778Z,24.80
2022-08-10T14:53:51.864Z,24.90
2022-08-10T14:56:42.961Z,24.90
2022-08-10T15:00:22.399Z,24.80
2022-08-10T15:02:56.047Z,24.70
2022-08-10T15:05:47.423Z,24.60
2022-08-10T15:08:37.344Z,24.60
2022-08-10T15:12:12.264Z,24.50
2022-08-10T15:14:45.047Z,24.60
2022-08-10T15:17:37.642Z,24.80
2022-08-10T15:20:28.537Z,24.70
2022-08-10T15:23:30.737Z,24.50
2022-08-10T15:26:22.079Z,24.40
2022-08-10T15:29:24.113Z,24.30
2022-08-10T15:32:33.206Z,24.50
2022-08-10T15:35:42.022Z,24.60
2022-08-10T15:38:35.018Z,24.70
2022-08-10T15:41:58.783Z,24.80
2022-08-10T15:44:50.089Z,24.70
2022-08-10T15:47:44.992Z,24.50
2022-08-10T15:50:41.482Z,24.50
2022-08-10T15:53:49.918Z,24.50
2022-08-10T15:56:46.034Z,24.40
2022-08-10T15:59:42.815Z,24.30
2022-08-10T16:02:36.763Z,24.30
2022-08-10T16:06:00.890Z,24.30
2022-08-10T16:08:56.491Z,24.00
2022-08-10T16:11:55.344Z,24.10
2022-08-10T16:14:49.286Z,24.20
2022-08-10T16:17:54.889Z,24.10
2022-08-10T16:20:54.558Z,24.00
2022-08-10T16:24:14.255Z,24.10
2022-08-10T16:26:58.331Z,24.20
2022-08-10T16:29:55.796Z,24.10
2022-08-10T16:32:47.511Z,24.00
2022-08-10T16:35:37.044Z,24.00
2022-08-10T16:38:28.145Z,24.00
2022-08-10T16:42:00.170Z,23.80
2022-08-10T16:44:34.491Z,23.80
2022-08-10T16:47:28.735Z,23.70
2022-08-10T16:50:24.296Z,23.80
2022-08-10T16:53:15.545Z,23.70
2022-08-10T16:56:08.550Z,23.70
2022-08-10T16:58:58.825Z,23.50
2022-08-10T17:01:51.552Z,23.60
2022-08-10T17:04:45.218Z,23.60
2022-08-10T17:07:35.537Z,23.50
2022-08-10T17:10:25.059Z,23.60
2022-08-10T17:13:16.184Z,23.60
2022-08-10T17:16:08.422Z,23.60
2022-08-10T17:18:59.448Z,23.60
2022-08-10T17:21:52.771Z,23.50
2022-08-10T17:24:47.391Z,23.50
2022-08-10T17:28:03.844Z,23.50
2022-08-10T17:30:58.058Z,23.50
2022-08-10T17:33:49.717Z,23.60
2022-08-10T17:36:39.110Z,23.50
2022-08-10T17:39:33.705Z,23.40
2022-08-10T17:42:23.535Z,23.50
2022-08-10T17:45:46.693Z,23.40
2022-08-10T17:48:32.549Z,23.30
2022-08-10T17:51:22.261Z,23.40
2022-08-10T17:54:24.845Z,23.30
2022-08-10T17:57:18.540Z,23.30
2022-08-10T18:00:11.196Z,23.30
2022-08-10T18:03:01.573Z,23.30
2022-08-10T18:05:55.980Z,23.30
2022-08-10T18:08:51.135Z,23.30
2022-08-10T18:11:44.618Z,23.30
2022-08-10T18:14:35.087Z,23.20
2022-08-10T18:17:25.593Z,23.40
2022-08-10T18:20:20.100Z,23.30
2022-08-10T18:23:11.666Z,23.20
2022-08-10T18:26:05.182Z,23.10
2022-08-10T18:28:56.778Z,23.10
2022-08-10T18:31:46.405Z,23.00
2022-08-10T18:34:36.614Z,23.00
2022-08-10T18:37:28.293Z,23.10
2022-08-10T18:40:20.116Z,22.90
2022-08-10T18:44:05.720Z,22.90
2022-08-10T18:46:29.024Z,22.90
2022-08-10T18:49:28.352Z,23.10
2022-08-10T18:52:18.541Z,23.00
2022-08-10T18:55:14.266Z,22.90
2022-08-10T18:59:02.116Z,23.00
2022-08-10T19:02:04.661Z,22.70
2022-08-10T19:05:30.692Z,22.70
2022-08-10T19:08:49.450Z,22.60
2022-08-10T19:11:55.573Z,22.60
2022-08-10T19:14:56.100Z,22.50
2022-08-10T19:18:03.277Z,22.50
2022-08-10T19:20:59.101Z,22.50
2022-08-10T19:24:06.016Z,22.50
2022-08-10T19:27:04.202Z,22.40
2022-08-10T19:30:13.644Z,22.30
2022-08-10T19:33:13.366Z,22.20
2022-08-10T19:36:11.080Z,22.30
2022-08-10T19:39:15.671Z,22.20
2022-08-10T19:42:12.141Z,22.20
2022-08-10T19:45:56.116Z,22.10
2022-08-10T19:48:35.925Z,22.00
2022-08-10T19:51:29.978Z,21.90
2022-08-10T19:54:26.775Z,21.80
2022-08-10T19:57:26.469Z,22.00
2022-08-10T20:00:23.014Z,22.10
2022-08-10T20:03:22.008Z,21.80
2022-08-10T20:06:20.630Z,21.70
2022-08-10T20:09:17.619Z,21.80
2022-08-10T20:12:09.515Z,21.60
2022-08-10T20:15:05.003Z,21.50
2022-08-10T20:17:58.459Z,21.50
2022-08-10T20:20:50.590Z,21.40
2022-08-10T20:23:55.366Z,21.30
2022-08-10T20:26:47.896Z,21.50
2022-08-10T20:29:58.951Z,21.50
2022-08-10T20:32:51.955Z,21.40
2022-08-10T20:35:55.122Z,21.70
2022-08-10T20:38:51.185Z,21.50
2022-08-10T20:41:58.505Z,21.60
2022-08-10T20:44:55.838Z,21.70
2022-08-10T20:47:54.749Z,21.50
2022-08-10T20:50:48.034Z,21.30
2022-08-10T20:53:45.326Z,21.30
2022-08-10T20:56:43.348Z,21.40
2022-08-10T21:00:03.987Z,21.20
2022-08-10T21:03:20.741Z,21.30
2022-08-10T21:06:42.253Z,21.30
2022-08-10T21:09:50.141Z,21.40
2022-08-10T21:13:09.366Z,21.20
2022-08-10T21:16:10.878Z,21.30
2022-08-10T21:19:20.047Z,21.30
2022-08-10T21:22:15.762Z,21.30
2022-08-10T21:25:09.851Z,21.50
2022-08-10T21:28:16.719Z,21.20
2022-08-10T21:31:26.060Z,21.30
2022-08-10T21:34:32.187Z,21.10
2022-08-10T21:37:26.651Z,21.20
2022-08-10T21:40:40.561Z,21.00
2022-08-10T21:43:59.654Z,21.30
2022-08-10T21:47:27.117Z,20.90
2022-08-10T21:50:45.782Z,21.20
2022-08-10T21:53:57.489Z,20.80
2022-08-10T21:57:12.561Z,20.80
2022-08-10T22:03:50.542Z,20.70
2022-08-10T22:07:03.868Z,20.50
2022-08-10T22:10:13.875Z,20.50
2022-08-10T22:13:26.899Z,20.40
2022-08-10T22:16:45.799Z,20.40
2022-08-10T22:19:54.858Z,20.40
2022-08-10T22:23:04.490Z,20.50
2022-08-10T22:26:41.331Z,20.40
2022-08-10T22:29:56.110Z,20.50
2022-08-10T22:33:23.253Z,20.40
2022-08-10T22:37:10.562Z,20.40
2022-08-10T22:40:22.186Z,20.30
2022-08-10T22:43:37.509Z,20.20
2022-08-10T22:46:48.377Z,20.10
2022-08-10T22:49:35.938Z,20.00
2022-08-10T22:52:29.204Z,20.10
2022-08-10T22:55:47.488Z,20.10
2022-08-10T22:58:41.997Z,20.00
2022-08-10T23:01:42.260Z,20.10
2022-08-10T23:04:54.380Z,20.00
2022-08-10T23:07:50.481Z,20.00
2022-08-10T23:10:42.725Z,19.90
2022-08-10T23:13:36.200Z,19.90
2022-08-10T23:16:46.918Z,20.00
2022-08-10T23:19:41.766Z,20.00
2022-08-10T23:22:35.518Z,19.80
2022-08-10T23:25:30.144Z,19.80
2022-08-10T23:28:39.315Z,19.90
2022-08-10T23:32:00.613Z,19.80
2022-08-10T23:36:30.146Z,19.80
2022-08-10T23:37:57.615Z,19.90
2022-08-10T23:40:48.413Z,19.80
2022-08-10T23:44:02.929Z,19.70
2022-08-10T23:46:50.910Z,19.60
2022-08-10T23:49:40.270Z,19.70
2022-08-10T23:52:34.965Z,19.60
2022-08-10T23:55:26.333Z,19.70
2022-08-10T23:58:31.841Z,19.50
